sensor_id;sensor_type;location;lat;lon;timestamp;P1;durP1;ratioP1;P2;durP2;ratioP2
3405;SDS011;10008;48.682;9.016;2023-06-19T00:01:45;13.17;;;12.10;;
3405;SDS011;10008;48.682;9.016;2023-06-19T00:04:11;13.10;;;12.10;;
3405;SDS011;10008;48.682;9.016;2023-06-19T00:06:37;13.30;;;12.20;;
3405;SDS011;10008;48.682;9.016;2023-06-19T00:09:03;13.40;;;12.30;;
3405;SDS011;10008;48.682;9.016;2023-06-19T00:11:29;13.60;;;12.50;;
3405;SDS011;10008;48.682;9.016;2023-06-19T00:13:55;13.50;;;12.40;;
3405;SDS011;10008;48.682;9.016;2023-06-19T00:16:21;14.37;;;13.17;;
3405;SDS011;10008;48.682;9.016;2023-06-19T00:18:50;13.23;;;12.13;;
3405;SDS011;10008;48.682;9.016;2023-06-19T00:21:16;12.80;;;11.80;;
3405;SDS011;10008;48.682;9.016;2023-06-19T00:23:43;13.00;;;12.00;;
3405;SDS011;10008;48.682;9.016;2023-06-19T00:26:09;16.70;;;12.80;;
3405;SDS011;10008;48.682;9.016;2023-06-19T00:28:37;12.80;;;11.80;;
3405;SDS011;10008;48.682;9.016;2023-06-19T00:31:04;12.63;;;11.63;;
3405;SDS011;10008;48.682;9.016;2023-06-19T00:33:32;12.93;;;11.93;;
3405;SDS011;10008;48.682;9.016;2023-06-19T00:35:57;14.23;;;12.97;;
3405;SDS011;10008;48.682;9.016;2023-06-19T00:38:23;12.73;;;11.73;;
3405;SDS011;10008;48.682;9.016;2023-06-19T00:40:49;12.70;;;11.70;;
3405;SDS011;10008;48.682;9.016;2023-06-19T00:43:14;12.90;;;11.90;;
3405;SDS011;10008;48.682;9.016;2023-06-19T00:45:40;12.87;;;11.87;;
3405;SDS011;10008;48.682;9.016;2023-06-19T00:48:06;12.90;;;11.90;;
3405;SDS011;10008;48.682;9.016;2023-06-19T00:50:32;12.90;;;11.90;;
3405;SDS011;10008;48.682;9.016;2023-06-19T00:52:58;13.20;;;12.20;;
3405;SDS011;10008;48.682;9.016;2023-06-19T00:55:28;12.90;;;11.90;;
3405;SDS011;10008;48.682;9.016;2023-06-19T00:57:57;12.70;;;11.70;;
3405;SDS011;10008;48.682;9.016;2023-06-19T01:00:25;12.60;;;11.60;;
3405;SDS011;10008;48.682;9.016;2023-06-19T01:02:51;12.80;;;11.80;;
3405;SDS011;10008;48.682;9.016;2023-06-19T01:05:16;14.13;;;12.83;;
3405;SDS011;10008;48.682;9.016;2023-06-19T01:10:32;13.20;;;12.20;;
3405;SDS011;10008;48.682;9.016;2023-06-19T01:13:02;15.70;;;14.30;;
3405;SDS011;10008;48.682;9.016;2023-06-19T01:15:35;13.43;;;12.33;;
3405;SDS011;10008;48.682;9.016;2023-06-19T01:18:03;13.10;;;12.10;;
3405;SDS011;10008;48.682;9.016;2023-06-19T01:20:29;13.93;;;12.83;;
3405;SDS011;10008;48.682;9.016;2023-06-19T01:22:56;14.00;;;12.80;;
3405;SDS011;10008;48.682;9.016;2023-06-19T01:25:24;13.97;;;12.87;;
3405;SDS011;10008;48.682;9.016;2023-06-19T01:27:50;15.30;;;13.90;;
3405;SDS011;10008;48.682;9.016;2023-06-19T01:30:17;13.63;;;12.50;;
3405;SDS011;10008;48.682;9.016;2023-06-19T01:35:44;15.60;;;14.13;;
3405;SDS011;10008;48.682;9.016;2023-06-19T01:38:12;12.60;;;11.60;;
3405;SDS011;10008;48.682;9.016;2023-06-19T01:40:39;12.87;;;11.87;;
3405;SDS011;10008;48.682;9.016;2023-06-19T01:43:05;12.97;;;11.87;;
3405;SDS011;10008;48.682;9.016;2023-06-19T01:45:33;12.80;;;11.80;;
3405;SDS011;10008;48.682;9.016;2023-06-19T01:47:59;13.20;;;12.10;;
3405;SDS011;10008;48.682;9.016;2023-06-19T01:50:25;13.30;;;12.20;;
3405;SDS011;10008;48.682;9.016;2023-06-19T01:52:51;13.60;;;12.50;;
3405;SDS011;10008;48.682;9.016;2023-06-19T01:55:17;14.93;;;13.67;;
3405;SDS011;10008;48.682;9.016;2023-06-19T01:57:43;13.60;;;12.50;;
3405;SDS011;10008;48.682;9.016;2023-06-19T02:00:11;13.40;;;12.30;;
3405;SDS011;10008;48.682;9.016;2023-06-19T02:02:41;15.50;;;13.90;;
3405;SDS011;10008;48.682;9.016;2023-06-19T02:05:07;13.30;;;12.20;;
3405;SDS011;10008;48.682;9.016;2023-06-19T02:07:33;15.83;;;14.33;;
3405;SDS011;10008;48.682;9.016;2023-06-19T02:09:58;13.13;;;12.10;;
3405;SDS011;10008;48.682;9.016;2023-06-19T02:12:24;13.87;;;12.77;;
3405;SDS011;10008;48.682;9.016;2023-06-19T02:14:50;13.63;;;12.53;;
3405;SDS011;10008;48.682;9.016;2023-06-19T02:17:15;15.50;;;14.10;;
3405;SDS011;10008;48.682;9.016;2023-06-19T02:19:41;13.87;;;12.70;;
3405;SDS011;10008;48.682;9.016;2023-06-19T02:22:07;13.53;;;12.43;;
3405;SDS011;10008;48.682;9.016;2023-06-19T02:24:33;12.60;;;11.60;;
3405;SDS011;10008;48.682;9.016;2023-06-19T02:26:59;13.43;;;12.33;;
3405;SDS011;10008;48.682;9.016;2023-06-19T02:29:27;20.07;;;12.47;;
3405;SDS011;10008;48.682;9.016;2023-06-19T02:31:55;13.97;;;12.60;;
3405;SDS011;10008;48.682;9.016;2023-06-19T02:34:21;12.60;;;11.60;;
3405;SDS011;10008;48.682;9.016;2023-06-19T02:36:49;13.40;;;12.27;;
3405;SDS011;10008;48.682;9.016;2023-06-19T02:39:15;12.60;;;11.60;;
3405;SDS011;10008;48.682;9.016;2023-06-19T02:41:41;13.00;;;11.90;;
3405;SDS011;10008;48.682;9.016;2023-06-19T02:44:12;14.00;;;12.80;;
3405;SDS011;10008;48.682;9.016;2023-06-19T02:46:38;13.20;;;12.10;;
3405;SDS011;10008;48.682;9.016;2023-06-19T02:49:03;12.80;;;11.80;;
3405;SDS011;10008;48.682;9.016;2023-06-19T02:51:29;12.47;;;11.47;;
3405;SDS011;10008;48.682;9.016;2023-06-19T02:53:55;12.50;;;11.50;;
3405;SDS011;10008;48.682;9.016;2023-06-19T02:56:21;14.23;;;13.03;;
3405;SDS011;10008;48.682;9.016;2023-06-19T02:58:47;12.70;;;11.70;;
3405;SDS011;10008;48.682;9.016;2023-06-19T03:01:13;13.30;;;12.20;;
3405;SDS011;10008;48.682;9.016;2023-06-19T03:03:39;12.67;;;11.67;;
3405;SDS011;10008;48.682;9.016;2023-06-19T03:06:06;13.73;;;12.57;;
3405;SDS011;10008;48.682;9.016;2023-06-19T03:08:36;13.67;;;12.47;;
3405;SDS011;10008;48.682;9.016;2023-06-19T03:11:03;19.20;;;12.90;;
3405;SDS011;10008;48.682;9.016;2023-06-19T03:13:35;13.33;;;12.23;;
3405;SDS011;10008;48.682;9.016;2023-06-19T03:16:12;13.00;;;11.87;;
3405;SDS011;10008;48.682;9.016;2023-06-19T03:18:38;13.03;;;11.93;;
3405;SDS011;10008;48.682;9.016;2023-06-19T03:21:04;12.63;;;11.53;;
3405;SDS011;10008;48.682;9.016;2023-06-19T03:23:29;15.03;;;13.63;;
3405;SDS011;10008;48.682;9.016;2023-06-19T03:25:55;13.27;;;12.17;;
3405;SDS011;10008;48.682;9.016;2023-06-19T03:28:23;13.80;;;12.50;;
3405;SDS011;10008;48.682;9.016;2023-06-19T03:30:49;12.80;;;11.70;;
3405;SDS011;10008;48.682;9.016;2023-06-19T03:33:19;13.07;;;11.87;;
3405;SDS011;10008;48.682;9.016;2023-06-19T03:35:45;13.60;;;12.30;;
3405;SDS011;10008;48.682;9.016;2023-06-19T03:38:27;12.93;;;11.80;;
3405;SDS011;10008;48.682;9.016;2023-06-19T03:40:53;13.47;;;12.27;;
3405;SDS011;10008;48.682;9.016;2023-06-19T03:43:20;12.20;;;11.20;;
3405;SDS011;10008;48.682;9.016;2023-06-19T03:45:45;12.70;;;11.60;;
3405;SDS011;10008;48.682;9.016;2023-06-19T03:48:11;15.00;;;13.70;;
3405;SDS011;10008;48.682;9.016;2023-06-19T03:50:38;13.10;;;11.97;;
3405;SDS011;10008;48.682;9.016;2023-06-19T03:53:06;13.30;;;12.10;;
3405;SDS011;10008;48.682;9.016;2023-06-19T03:55:32;12.50;;;11.40;;
3405;SDS011;10008;48.682;9.016;2023-06-19T03:57:57;13.40;;;12.20;;
3405;SDS011;10008;48.682;9.016;2023-06-19T04:00:23;13.43;;;12.23;;
3405;SDS011;10008;48.682;9.016;2023-06-19T04:02:49;13.67;;;12.37;;
3405;SDS011;10008;48.682;9.016;2023-06-19T04:05:15;13.23;;;12.03;;
3405;SDS011;10008;48.682;9.016;2023-06-19T04:07:42;14.97;;;13.47;;
3405;SDS011;10008;48.682;9.016;2023-06-19T04:10:07;14.90;;;13.47;;
3405;SDS011;10008;48.682;9.016;2023-06-19T04:12:33;14.33;;;12.93;;
3405;SDS011;10008;48.682;9.016;2023-06-19T04:14:59;19.33;;;14.13;;
3405;SDS011;10008;48.682;9.016;2023-06-19T04:17:25;14.80;;;13.30;;
3405;SDS011;10008;48.682;9.016;2023-06-19T04:19:51;15.00;;;13.50;;
3405;SDS011;10008;48.682;9.016;2023-06-19T04:22:18;17.27;;;15.40;;
3405;SDS011;10008;48.682;9.016;2023-06-19T04:24:44;16.60;;;15.00;;
3405;SDS011;10008;48.682;9.016;2023-06-19T04:27:10;16.10;;;14.60;;
3405;SDS011;10008;48.682;9.016;2023-06-19T04:29:36;14.20;;;12.83;;
3405;SDS011;10008;48.682;9.016;2023-06-19T04:32:02;14.10;;;12.80;;
3405;SDS011;10008;48.682;9.016;2023-06-19T04:34:36;13.10;;;11.90;;
3405;SDS011;10008;48.682;9.016;2023-06-19T04:37:02;12.50;;;11.40;;
3405;SDS011;10008;48.682;9.016;2023-06-19T04:39:28;12.73;;;11.60;;
3405;SDS011;10008;48.682;9.016;2023-06-19T04:41:53;12.90;;;11.70;;
3405;SDS011;10008;48.682;9.016;2023-06-19T04:44:19;13.30;;;12.10;;
3405;SDS011;10008;48.682;9.016;2023-06-19T04:46:45;14.80;;;13.60;;
3405;SDS011;10008;48.682;9.016;2023-06-19T04:49:11;12.50;;;11.40;;
3405;SDS011;10008;48.682;9.016;2023-06-19T04:51:38;12.10;;;11.10;;
3405;SDS011;10008;48.682;9.016;2023-06-19T04:54:04;11.90;;;10.90;;
3405;SDS011;10008;48.682;9.016;2023-06-19T04:56:30;12.50;;;11.47;;
3405;SDS011;10008;48.682;9.016;2023-06-19T04:58:57;11.90;;;10.90;;
3405;SDS011;10008;48.682;9.016;2023-06-19T05:01:25;13.40;;;12.20;;
3405;SDS011;10008;48.682;9.016;2023-06-19T05:03:55;12.57;;;11.47;;
3405;SDS011;10008;48.682;9.016;2023-06-19T05:06:25;12.50;;;11.43;;
3405;SDS011;10008;48.682;9.016;2023-06-19T05:08:51;13.17;;;11.97;;
3405;SDS011;10008;48.682;9.016;2023-06-19T05:11:17;11.80;;;10.80;;
3405;SDS011;10008;48.682;9.016;2023-06-19T05:13:43;13.70;;;12.50;;
3405;SDS011;10008;48.682;9.016;2023-06-19T05:16:09;12.40;;;11.40;;
3405;SDS011;10008;48.682;9.016;2023-06-19T05:18:36;12.53;;;11.43;;
3405;SDS011;10008;48.682;9.016;2023-06-19T05:21:02;13.40;;;12.20;;
3405;SDS011;10008;48.682;9.016;2023-06-19T05:23:28;13.43;;;12.23;;
3405;SDS011;10008;48.682;9.016;2023-06-19T05:25:53;12.90;;;11.80;;
3405;SDS011;10008;48.682;9.016;2023-06-19T05:28:19;13.83;;;12.63;;
3405;SDS011;10008;48.682;9.016;2023-06-19T05:30:45;13.20;;;12.00;;
3405;SDS011;10008;48.682;9.016;2023-06-19T05:33:10;14.33;;;12.83;;
3405;SDS011;10008;48.682;9.016;2023-06-19T05:35:41;13.30;;;12.10;;
3405;SDS011;10008;48.682;9.016;2023-06-19T05:38:07;13.57;;;12.37;;
3405;SDS011;10008;48.682;9.016;2023-06-19T05:40:33;14.43;;;13.13;;
3405;SDS011;10008;48.682;9.016;2023-06-19T05:42:59;13.40;;;12.20;;
3405;SDS011;10008;48.682;9.016;2023-06-19T05:45:25;13.80;;;12.60;;
3405;SDS011;10008;48.682;9.016;2023-06-19T05:47:51;13.90;;;12.70;;
3405;SDS011;10008;48.682;9.016;2023-06-19T05:50:16;14.90;;;13.43;;
3405;SDS011;10008;48.682;9.016;2023-06-19T05:52:42;14.40;;;13.10;;
3405;SDS011;10008;48.682;9.016;2023-06-19T05:55:09;13.10;;;12.00;;
3405;SDS011;10008;48.682;9.016;2023-06-19T05:57:35;13.63;;;12.43;;
3405;SDS011;10008;48.682;9.016;2023-06-19T06:00:01;15.10;;;13.70;;
3405;SDS011;10008;48.682;9.016;2023-06-19T06:02:38;13.23;;;12.03;;
3405;SDS011;10008;48.682;9.016;2023-06-19T06:05:03;13.60;;;12.40;;
3405;SDS011;10008;48.682;9.016;2023-06-19T06:07:29;13.80;;;12.60;;
3405;SDS011;10008;48.682;9.016;2023-06-19T06:09:55;13.70;;;12.50;;
3405;SDS011;10008;48.682;9.016;2023-06-19T06:12:21;14.60;;;13.30;;
3405;SDS011;10008;48.682;9.016;2023-06-19T06:14:47;14.67;;;13.30;;
3405;SDS011;10008;48.682;9.016;2023-06-19T06:17:12;14.63;;;13.07;;
3405;SDS011;10008;48.682;9.016;2023-06-19T06:19:38;14.60;;;13.13;;
3405;SDS011;10008;48.682;9.016;2023-06-19T06:22:04;14.63;;;13.23;;
3405;SDS011;10008;48.682;9.016;2023-06-19T06:24:30;14.60;;;13.20;;
3405;SDS011;10008;48.682;9.016;2023-06-19T06:26:56;14.27;;;12.90;;
3405;SDS011;10008;48.682;9.016;2023-06-19T06:29:21;13.73;;;12.43;;
3405;SDS011;10008;48.682;9.016;2023-06-19T06:31:47;14.10;;;12.80;;
3405;SDS011;10008;48.682;9.016;2023-06-19T06:34:14;15.10;;;13.70;;
3405;SDS011;10008;48.682;9.016;2023-06-19T06:36:39;13.70;;;12.50;;
3405;SDS011;10008;48.682;9.016;2023-06-19T06:39:05;14.20;;;12.90;;
3405;SDS011;10008;48.682;9.016;2023-06-19T06:41:31;15.30;;;13.70;;
3405;SDS011;10008;48.682;9.016;2023-06-19T06:43:57;14.57;;;13.10;;
3405;SDS011;10008;48.682;9.016;2023-06-19T06:46:22;13.63;;;12.40;;
3405;SDS011;10008;48.682;9.016;2023-06-19T06:48:49;14.57;;;13.17;;
3405;SDS011;10008;48.682;9.016;2023-06-19T06:51:15;15.23;;;13.70;;
3405;SDS011;10008;48.682;9.016;2023-06-19T06:53:40;14.83;;;13.43;;
3405;SDS011;10008;48.682;9.016;2023-06-19T06:56:06;14.10;;;12.80;;
3405;SDS011;10008;48.682;9.016;2023-06-19T06:58:32;15.43;;;14.00;;
3405;SDS011;10008;48.682;9.016;2023-06-19T07:00:57;14.17;;;12.87;;
3405;SDS011;10008;48.682;9.016;2023-06-19T07:03:23;14.60;;;13.30;;
3405;SDS011;10008;48.682;9.016;2023-06-19T07:05:49;13.73;;;12.53;;
3405;SDS011;10008;48.682;9.016;2023-06-19T07:08:15;14.30;;;13.00;;
3405;SDS011;10008;48.682;9.016;2023-06-19T07:10:40;14.20;;;12.90;;
3405;SDS011;10008;48.682;9.016;2023-06-19T07:13:06;14.77;;;13.37;;
3405;SDS011;10008;48.682;9.016;2023-06-19T07:15:32;14.40;;;13.10;;
3405;SDS011;10008;48.682;9.016;2023-06-19T07:17:57;14.47;;;13.17;;
3405;SDS011;10008;48.682;9.016;2023-06-19T07:20:23;14.33;;;13.03;;
3405;SDS011;10008;48.682;9.016;2023-06-19T07:22:51;14.90;;;13.50;;
3405;SDS011;10008;48.682;9.016;2023-06-19T07:25:17;14.37;;;13.07;;
3405;SDS011;10008;48.682;9.016;2023-06-19T07:27:43;15.30;;;13.90;;
3405;SDS011;10008;48.682;9.016;2023-06-19T07:30:09;15.07;;;13.67;;
3405;SDS011;10008;48.682;9.016;2023-06-19T07:32:36;15.60;;;14.10;;
3405;SDS011;10008;48.682;9.016;2023-06-19T07:35:03;15.27;;;13.87;;
3405;SDS011;10008;48.682;9.016;2023-06-19T07:37:29;15.23;;;13.77;;
3405;SDS011;10008;48.682;9.016;2023-06-19T07:39:55;15.57;;;14.07;;
3405;SDS011;10008;48.682;9.016;2023-06-19T07:42:21;16.10;;;14.57;;
3405;SDS011;10008;48.682;9.016;2023-06-19T07:44:47;15.10;;;13.70;;
3405;SDS011;10008;48.682;9.016;2023-06-19T07:47:13;14.23;;;12.93;;
3405;SDS011;10008;48.682;9.016;2023-06-19T07:49:40;15.10;;;13.60;;
3405;SDS011;10008;48.682;9.016;2023-06-19T07:52:06;14.50;;;13.20;;
3405;SDS011;10008;48.682;9.016;2023-06-19T07:54:34;15.80;;;14.20;;
3405;SDS011;10008;48.682;9.016;2023-06-19T07:57:00;14.43;;;13.13;;
3405;SDS011;10008;48.682;9.016;2023-06-19T07:59:27;16.07;;;14.50;;
3405;SDS011;10008;48.682;9.016;2023-06-19T08:01:52;13.67;;;12.47;;
3405;SDS011;10008;48.682;9.016;2023-06-19T08:04:18;14.13;;;12.83;;
3405;SDS011;10008;48.682;9.016;2023-06-19T08:06:44;13.90;;;12.70;;
3405;SDS011;10008;48.682;9.016;2023-06-19T08:09:09;14.57;;;13.30;;
3405;SDS011;10008;48.682;9.016;2023-06-19T08:11:35;14.50;;;13.20;;
3405;SDS011;10008;48.682;9.016;2023-06-19T08:14:02;13.60;;;12.40;;
3405;SDS011;10008;48.682;9.016;2023-06-19T08:16:28;16.13;;;14.47;;
3405;SDS011;10008;48.682;9.016;2023-06-19T08:18:54;14.83;;;13.47;;
3405;SDS011;10008;48.682;9.016;2023-06-19T08:21:19;14.60;;;13.20;;
3405;SDS011;10008;48.682;9.016;2023-06-19T08:23:46;15.23;;;13.73;;
3405;SDS011;10008;48.682;9.016;2023-06-19T08:26:13;16.00;;;13.83;;
3405;SDS011;10008;48.682;9.016;2023-06-19T08:28:39;14.97;;;13.60;;
3405;SDS011;10008;48.682;9.016;2023-06-19T08:31:06;14.60;;;13.30;;
3405;SDS011;10008;48.682;9.016;2023-06-19T08:33:34;16.17;;;14.67;;
3405;SDS011;10008;48.682;9.016;2023-06-19T08:36:00;18.53;;;14.20;;
3405;SDS011;10008;48.682;9.016;2023-06-19T08:38:26;15.33;;;13.93;;
3405;SDS011;10008;48.682;9.016;2023-06-19T08:40:52;14.90;;;13.60;;
3405;SDS011;10008;48.682;9.016;2023-06-19T08:43:18;15.40;;;14.00;;
3405;SDS011;10008;48.682;9.016;2023-06-19T08:45:52;15.07;;;13.67;;
3405;SDS011;10008;48.682;9.016;2023-06-19T08:48:39;18.20;;;14.37;;
3405;SDS011;10008;48.682;9.016;2023-06-19T08:51:05;15.97;;;14.47;;
3405;SDS011;10008;48.682;9.016;2023-06-19T08:53:34;14.80;;;13.50;;
3405;SDS011;10008;48.682;9.016;2023-06-19T08:56:02;15.00;;;13.60;;
3405;SDS011;10008;48.682;9.016;2023-06-19T08:58:28;15.00;;;13.70;;
3405;SDS011;10008;48.682;9.016;2023-06-19T09:00:54;14.90;;;13.60;;
3405;SDS011;10008;48.682;9.016;2023-06-19T09:03:22;15.77;;;14.27;;
3405;SDS011;10008;48.682;9.016;2023-06-19T09:05:48;15.37;;;13.97;;
3405;SDS011;10008;48.682;9.016;2023-06-19T09:08:18;16.00;;;14.47;;
3405;SDS011;10008;48.682;9.016;2023-06-19T09:10:56;16.10;;;14.50;;
3405;SDS011;10008;48.682;9.016;2023-06-19T09:13:22;15.80;;;14.30;;
3405;SDS011;10008;48.682;9.016;2023-06-19T09:15:56;16.00;;;14.50;;
3405;SDS011;10008;48.682;9.016;2023-06-19T09:18:30;16.57;;;14.97;;
3405;SDS011;10008;48.682;9.016;2023-06-19T09:20:57;16.80;;;15.30;;
3405;SDS011;10008;48.682;9.016;2023-06-19T09:23:23;14.90;;;13.60;;
3405;SDS011;10008;48.682;9.016;2023-06-19T09:25:52;16.00;;;14.60;;
3405;SDS011;10008;48.682;9.016;2023-06-19T09:28:24;15.63;;;14.30;;
3405;SDS011;10008;48.682;9.016;2023-06-19T09:30:55;16.20;;;14.70;;
3405;SDS011;10008;48.682;9.016;2023-06-19T09:33:26;15.77;;;14.37;;
3405;SDS011;10008;48.682;9.016;2023-06-19T09:35:53;16.10;;;14.60;;
3405;SDS011;10008;48.682;9.016;2023-06-19T09:38:21;15.60;;;14.20;;
3405;SDS011;10008;48.682;9.016;2023-06-19T09:40:56;15.77;;;14.27;;
3405;SDS011;10008;48.682;9.016;2023-06-19T09:43:30;15.43;;;14.03;;
3405;SDS011;10008;48.682;9.016;2023-06-19T09:46:01;15.23;;;13.83;;
3405;SDS011;10008;48.682;9.016;2023-06-19T09:48:30;15.83;;;14.33;;
3405;SDS011;10008;48.682;9.016;2023-06-19T09:51:07;15.40;;;14.00;;
3405;SDS011;10008;48.682;9.016;2023-06-19T09:53:43;16.80;;;15.17;;
3405;SDS011;10008;48.682;9.016;2023-06-19T09:56:11;15.40;;;14.00;;
3405;SDS011;10008;48.682;9.016;2023-06-19T09:58:38;15.50;;;14.00;;
3405;SDS011;10008;48.682;9.016;2023-06-19T10:01:05;15.60;;;14.20;;
3405;SDS011;10008;48.682;9.016;2023-06-19T10:03:33;16.77;;;15.17;;
3405;SDS011;10008;48.682;9.016;2023-06-19T10:06:00;14.90;;;13.60;;
3405;SDS011;10008;48.682;9.016;2023-06-19T10:08:27;14.83;;;13.53;;
3405;SDS011;10008;48.682;9.016;2023-06-19T10:11:03;15.53;;;14.13;;
3405;SDS011;10008;48.682;9.016;2023-06-19T10:13:35;15.10;;;13.80;;
3405;SDS011;10008;48.682;9.016;2023-06-19T10:16:06;14.70;;;13.40;;
3405;SDS011;10008;48.682;9.016;2023-06-19T10:18:52;14.90;;;13.60;;
3405;SDS011;10008;48.682;9.016;2023-06-19T10:21:18;14.73;;;13.43;;
3405;SDS011;10008;48.682;9.016;2023-06-19T10:23:54;16.10;;;14.73;;
3405;SDS011;10008;48.682;9.016;2023-06-19T10:26:29;15.50;;;14.20;;
3405;SDS011;10008;48.682;9.016;2023-06-19T10:28:58;16.47;;;14.97;;
3405;SDS011;10008;48.682;9.016;2023-06-19T10:31:24;16.03;;;14.53;;
3405;SDS011;10008;48.682;9.016;2023-06-19T10:33:50;15.30;;;14.00;;
3405;SDS011;10008;48.682;9.016;2023-06-19T10:36:17;14.83;;;13.57;;
3405;SDS011;10008;48.682;9.016;2023-06-19T10:38:44;15.00;;;13.70;;
3405;SDS011;10008;48.682;9.016;2023-06-19T10:41:19;15.10;;;13.70;;
3405;SDS011;10008;48.682;9.016;2023-06-19T10:43:57;15.40;;;14.00;;
3405;SDS011;10008;48.682;9.016;2023-06-19T10:46:23;15.30;;;13.90;;
3405;SDS011;10008;48.682;9.016;2023-06-19T10:48:54;15.37;;;13.97;;
3405;SDS011;10008;48.682;9.016;2023-06-19T10:51:24;15.70;;;14.30;;
3405;SDS011;10008;48.682;9.016;2023-06-19T10:53:50;15.47;;;14.07;;
3405;SDS011;10008;48.682;9.016;2023-06-19T10:56:22;15.43;;;14.03;;
3405;SDS011;10008;48.682;9.016;2023-06-19T10:58:56;15.80;;;14.40;;
3405;SDS011;10008;48.682;9.016;2023-06-19T11:01:30;15.50;;;14.10;;
3405;SDS011;10008;48.682;9.016;2023-06-19T11:04:02;15.80;;;14.30;;
3405;SDS011;10008;48.682;9.016;2023-06-19T11:06:28;14.70;;;13.40;;
3405;SDS011;10008;48.682;9.016;2023-06-19T11:08:54;15.23;;;13.93;;
3405;SDS011;10008;48.682;9.016;2023-06-19T11:11:21;16.47;;;15.07;;
3405;SDS011;10008;48.682;9.016;2023-06-19T11:13:47;15.40;;;14.00;;
3405;SDS011;10008;48.682;9.016;2023-06-19T11:16:14;15.20;;;13.85;;
3405;SDS011;10008;48.682;9.016;2023-06-19T11:18:40;14.57;;;13.27;;
3405;SDS011;10008;48.682;9.016;2023-06-19T11:21:05;17.37;;;15.90;;
3405;SDS011;10008;48.682;9.016;2023-06-19T11:23:31;14.57;;;13.27;;
3405;SDS011;10008;48.682;9.016;2023-06-19T11:26:03;15.17;;;13.77;;
3405;SDS011;10008;48.682;9.016;2023-06-19T11:28:30;14.70;;;13.40;;
3405;SDS011;10008;48.682;9.016;2023-06-19T11:30:59;14.60;;;13.30;;
3405;SDS011;10008;48.682;9.016;2023-06-19T11:33:27;14.30;;;13.00;;
3405;SDS011;10008;48.682;9.016;2023-06-19T11:35:54;15.60;;;14.20;;
3405;SDS011;10008;48.682;9.016;2023-06-19T11:38:25;14.40;;;13.10;;
3405;SDS011;10008;48.682;9.016;2023-06-19T11:40:51;14.47;;;13.17;;
3405;SDS011;10008;48.682;9.016;2023-06-19T11:43:28;14.33;;;13.03;;
3405;SDS011;10008;48.682;9.016;2023-06-19T11:46:01;14.07;;;12.77;;
3405;SDS011;10008;48.682;9.016;2023-06-19T11:48:27;14.23;;;13.03;;
3405;SDS011;10008;48.682;9.016;2023-06-19T11:50:53;14.30;;;13.00;;
3405;SDS011;10008;48.682;9.016;2023-06-19T11:53:23;15.97;;;14.57;;
3405;SDS011;10008;48.682;9.016;2023-06-19T11:55:50;14.57;;;13.30;;
3405;SDS011;10008;48.682;9.016;2023-06-19T11:58:17;15.73;;;14.13;;
3405;SDS011;10008;48.682;9.016;2023-06-19T12:00:45;14.67;;;13.37;;
3405;SDS011;10008;48.682;9.016;2023-06-19T12:03:11;14.70;;;13.40;;
3405;SDS011;10008;48.682;9.016;2023-06-19T12:05:37;15.10;;;13.70;;
3405;SDS011;10008;48.682;9.016;2023-06-19T12:08:03;15.13;;;13.83;;
3405;SDS011;10008;48.682;9.016;2023-06-19T12:10:31;15.30;;;13.90;;
3405;SDS011;10008;48.682;9.016;2023-06-19T12:12:57;14.80;;;13.50;;
3405;SDS011;10008;48.682;9.016;2023-06-19T12:15:22;15.05;;;13.75;;
3405;SDS011;10008;48.682;9.016;2023-06-19T12:17:50;14.43;;;13.13;;
3405;SDS011;10008;48.682;9.016;2023-06-19T12:20:16;14.70;;;13.40;;
3405;SDS011;10008;48.682;9.016;2023-06-19T12:22:42;14.70;;;13.40;;
3405;SDS011;10008;48.682;9.016;2023-06-19T12:25:08;14.60;;;13.30;;
3405;SDS011;10008;48.682;9.016;2023-06-19T12:27:34;14.48;;;13.18;;
3405;SDS011;10008;48.682;9.016;2023-06-19T12:30:00;14.38;;;13.07;;
3405;SDS011;10008;48.682;9.016;2023-06-19T12:32:25;14.87;;;13.57;;
3405;SDS011;10008;48.682;9.016;2023-06-19T12:34:51;14.50;;;13.20;;
3405;SDS011;10008;48.682;9.016;2023-06-19T12:37:19;14.37;;;13.07;;
3405;SDS011;10008;48.682;9.016;2023-06-19T12:39:46;15.10;;;13.70;;
3405;SDS011;10008;48.682;9.016;2023-06-19T12:42:12;14.60;;;13.30;;
3405;SDS011;10008;48.682;9.016;2023-06-19T12:44:41;14.57;;;13.27;;
3405;SDS011;10008;48.682;9.016;2023-06-19T12:47:07;16.00;;;14.60;;
3405;SDS011;10008;48.682;9.016;2023-06-19T12:49:33;15.30;;;13.90;;
3405;SDS011;10008;48.682;9.016;2023-06-19T12:51:59;14.53;;;13.23;;
3405;SDS011;10008;48.682;9.016;2023-06-19T12:54:25;14.50;;;13.20;;
3405;SDS011;10008;48.682;9.016;2023-06-19T12:56:52;14.87;;;13.47;;
3405;SDS011;10008;48.682;9.016;2023-06-19T12:59:18;14.73;;;13.40;;
3405;SDS011;10008;48.682;9.016;2023-06-19T13:01:44;14.50;;;13.20;;
3405;SDS011;10008;48.682;9.016;2023-06-19T13:04:11;15.27;;;13.87;;
3405;SDS011;10008;48.682;9.016;2023-06-19T13:06:37;14.90;;;13.60;;
3405;SDS011;10008;48.682;9.016;2023-06-19T13:09:05;16.23;;;14.73;;
3405;SDS011;10008;48.682;9.016;2023-06-19T13:11:31;14.90;;;13.50;;
3405;SDS011;10008;48.682;9.016;2023-06-19T13:13:59;14.80;;;13.47;;
3405;SDS011;10008;48.682;9.016;2023-06-19T13:16:25;14.67;;;13.37;;
3405;SDS011;10008;48.682;9.016;2023-06-19T13:18:51;14.80;;;13.50;;
3405;SDS011;10008;48.682;9.016;2023-06-19T13:21:17;14.60;;;13.30;;
3405;SDS011;10008;48.682;9.016;2023-06-19T13:23:43;14.90;;;13.50;;
3405;SDS011;10008;48.682;9.016;2023-06-19T13:26:09;14.83;;;13.43;;
3405;SDS011;10008;48.682;9.016;2023-06-19T13:28:35;14.73;;;13.33;;
3405;SDS011;10008;48.682;9.016;2023-06-19T13:31:02;14.40;;;13.10;;
3405;SDS011;10008;48.682;9.016;2023-06-19T13:33:28;15.10;;;13.70;;
3405;SDS011;10008;48.682;9.016;2023-06-19T13:35:54;14.77;;;13.37;;
3405;SDS011;10008;48.682;9.016;2023-06-19T13:38:20;14.80;;;13.40;;
3405;SDS011;10008;48.682;9.016;2023-06-19T13:40:46;15.40;;;14.00;;
3405;SDS011;10008;48.682;9.016;2023-06-19T13:43:12;14.40;;;13.10;;
3405;SDS011;10008;48.682;9.016;2023-06-19T13:45:38;14.30;;;13.00;;
3405;SDS011;10008;48.682;9.016;2023-06-19T13:48:04;14.03;;;12.73;;
3405;SDS011;10008;48.682;9.016;2023-06-19T13:50:30;14.30;;;13.00;;
3405;SDS011;10008;48.682;9.016;2023-06-19T13:52:58;14.40;;;13.10;;
3405;SDS011;10008;48.682;9.016;2023-06-19T13:55:24;14.10;;;12.80;;
3405;SDS011;10008;48.682;9.016;2023-06-19T13:57:49;14.40;;;13.07;;
3405;SDS011;10008;48.682;9.016;2023-06-19T14:00:15;14.50;;;13.20;;
3405;SDS011;10008;48.682;9.016;2023-06-19T14:02:41;14.93;;;13.53;;
3405;SDS011;10008;48.682;9.016;2023-06-19T14:05:08;14.50;;;13.20;;
3405;SDS011;10008;48.682;9.016;2023-06-19T14:07:34;14.80;;;13.40;;
3405;SDS011;10008;48.682;9.016;2023-06-19T14:10:01;14.10;;;12.80;;
3405;SDS011;10008;48.682;9.016;2023-06-19T14:12:28;14.87;;;13.57;;
3405;SDS011;10008;48.682;9.016;2023-06-19T14:14:55;14.00;;;12.70;;
3405;SDS011;10008;48.682;9.016;2023-06-19T14:17:21;14.70;;;13.30;;
3405;SDS011;10008;48.682;9.016;2023-06-19T14:19:47;14.80;;;13.40;;
3405;SDS011;10008;48.682;9.016;2023-06-19T14:22:13;15.03;;;13.63;;
3405;SDS011;10008;48.682;9.016;2023-06-19T14:24:39;15.03;;;13.63;;
3405;SDS011;10008;48.682;9.016;2023-06-19T14:27:06;15.00;;;13.70;;
3405;SDS011;10008;48.682;9.016;2023-06-19T14:29:32;14.40;;;13.10;;
3405;SDS011;10008;48.682;9.016;2023-06-19T14:31:58;14.47;;;13.17;;
3405;SDS011;10008;48.682;9.016;2023-06-19T14:34:23;14.83;;;13.47;;
3405;SDS011;10008;48.682;9.016;2023-06-19T14:36:49;15.30;;;13.90;;
3405;SDS011;10008;48.682;9.016;2023-06-19T14:39:15;15.30;;;13.90;;